createdAt,value
2023-03-03T00:08:29.117Z,83.39
2023-03-03T00:18:35.869Z,83.22
2023-03-03T00:28:48.360Z,82.99
2023-03-03T00:38:54.860Z,82.82
2023-03-03T00:48:59.481Z,82.93
2023-03-03T00:59:05.067Z,82.52
2023-03-03T01:09:10.967Z,82.49
2023-03-03T01:19:16.739Z,82.08
2023-03-03T01:29:22.401Z,81.94
2023-03-03T01:39:28.568Z,81.67
2023-03-03T01:49:39.108Z,81.53
2023-03-03T01:59:50.535Z,81.51
2023-03-03T02:10:00.535Z,81.28
2023-03-03T02:20:14.383Z,81.02
2023-03-03T02:30:25.665Z,81.00
2023-03-03T02:40:37.590Z,80.97
2023-03-03T02:50:43.246Z,81.08
2023-03-03T03:00:48.906Z,80.78
2023-03-03T03:10:54.680Z,80.50
2023-03-03T03:21:06.294Z,80.44
2023-03-03T03:31:12.843Z,80.16
2023-03-03T03:41:18.646Z,80.18
2023-03-03T03:51:24.245Z,80.37
2023-03-03T04:01:30.111Z,80.50
2023-03-03T04:11:35.967Z,80.77
2023-03-03T04:21:42.090Z,80.61
2023-03-03T04:31:47.932Z,80.69
2023-03-03T04:41:53.544Z,80.56
2023-03-03T04:51:59.471Z,80.63
2023-03-03T05:02:05.635Z,80.98
2023-03-03T05:12:11.372Z,81.08
2023-03-03T05:22:17.201Z,80.89
2023-03-03T05:32:23.043Z,81.08
2023-03-03T05:42:28.817Z,81.52
2023-03-03T05:52:34.455Z,81.89
2023-03-03T06:02:40.141Z,81.94
2023-03-03T06:12:46.211Z,82.33
2023-03-03T06:22:51.967Z,82.56
2023-03-03T06:32:57.713Z,82.76
2023-03-03T06:43:04.355Z,82.51
2023-03-03T06:53:15.295Z,82.76
2023-03-03T07:03:24.868Z,82.56
2023-03-03T07:13:33.785Z,83.06
2023-03-03T07:23:42.780Z,83.41
2023-03-03T07:33:49.391Z,83.69
2023-03-03T07:43:56.814Z,83.88
2023-03-03T07:54:25.323Z,83.76
2023-03-03T08:04:39.374Z,83.81
2023-03-03T08:14:45.398Z,83.75
2023-03-03T08:24:51.642Z,84.12
2023-03-03T08:34:57.319Z,83.95
2023-03-03T08:45:03.073Z,83.76
2023-03-03T08:55:09.291Z,83.52
2023-03-03T09:05:15.641Z,83.25
2023-03-03T09:15:25.523Z,83.01
2023-03-03T09:25:35.731Z,82.76
2023-03-03T09:35:42.594Z,82.19
2023-03-03T09:45:59.145Z,81.52
2023-03-03T09:56:14.983Z,80.70
2023-03-03T10:06:26.697Z,80.81
2023-03-03T10:17:05.951Z,80.48
2023-03-03T10:27:30.143Z,79.62
2023-03-03T10:37:47.572Z,78.90
2023-03-03T10:48:09.097Z,78.71
2023-03-03T10:58:39.812Z,78.73
2023-03-03T11:08:50.601Z,78.11
2023-03-03T11:19:23.488Z,77.98
2023-03-03T11:29:42.742Z,78.15
2023-03-03T11:39:50.965Z,77.82
2023-03-03T11:50:02.003Z,78.12
2023-03-03T12:00:24.355Z,78.38
2023-03-03T12:10:39.140Z,78.69
2023-03-03T12:20:52.801Z,79.28
2023-03-03T12:31:18.078Z,79.19
2023-03-03T12:41:28.433Z,79.51
2023-03-03T12:51:43.727Z,79.59
2023-03-03T13:02:01.741Z,79.48
2023-03-03T13:12:22.713Z,79.66
2023-03-03T13:22:36.974Z,79.95
2023-03-03T13:32:50.865Z,80.17
2023-03-03T13:43:03.829Z,80.22
2023-03-03T13:53:29.426Z,80.69
2023-03-03T14:03:55.470Z,81.24
2023-03-03T14:14:13.630Z,81.72
2023-03-03T14:24:21.502Z,82.43
2023-03-03T14:34:38.553Z,83.08
2023-03-03T14:44:59.298Z,83.77
2023-03-03T14:55:32.761Z,83.71
2023-03-03T15:05:49.608Z,84.22
2023-03-03T15:16:05.726Z,84.63
2023-03-03T15:26:20.593Z,84.78
2023-03-03T15:36:35.770Z,84.28
2023-03-03T15:46:54.655Z,84.39
2023-03-03T15:57:04.538Z,84.51
2023-03-03T16:07:23.823Z,84.81
2023-03-03T16:17:40.458Z,84.75
2023-03-03T16:27:53.829Z,84.51
2023-03-03T16:38:02.732Z,85.09
2023-03-03T16:48:27.030Z,85.17
2023-03-03T16:58:43.527Z,84.93
2023-03-03T17:09:31.861Z,84.95
2023-03-03T17:19:50.323Z,85.03
2023-03-03T17:30:12.323Z,85.07
2023-03-03T17:40:44.598Z,84.81
2023-03-03T17:51:07.253Z,84.86
2023-03-03T18:01:23.285Z,85.03
2023-03-03T18:11:49.170Z,85.09
2023-03-03T18:22:00.056Z,84.86
2023-03-03T18:32:20.776Z,85.06
2023-03-03T18:42:41.427Z,85.06
2023-03-03T18:53:20.581Z,85.28
2023-03-03T19:03:34.849Z,85.32
2023-03-03T19:13:51.975Z,85.57
2023-03-03T19:24:00.185Z,85.43
2023-03-03T19:34:12.377Z,85.72
2023-03-03T19:44:32.564Z,85.82
2023-03-03T19:55:00.178Z,85.98
2023-03-03T20:05:21.125Z,86.54
2023-03-03T20:15:39.175Z,86.27
2023-03-03T20:25:47.955Z,86.36
2023-03-03T20:36:05.276Z,86.54
2023-03-03T20:46:19.835Z,86.40
2023-03-03T20:56:33.950Z,86.24
2023-03-03T21:06:42.827Z,86.34
2023-03-03T21:16:49.529Z,86.39
2023-03-03T21:26:57.713Z,86.62
2023-03-03T21:37:04.977Z,86.54
2023-03-03T21:47:12.713Z,86.42
2023-03-03T21:57:18.774Z,86.55
2023-03-03T22:07:24.565Z,86.42
2023-03-03T22:17:30.311Z,86.54
2023-03-03T22:27:36.048Z,86.90
2023-03-03T22:37:41.765Z,87.18
2023-03-03T22:47:47.415Z,87.42
2023-03-03T22:57:53.026Z,87.91
2023-03-03T23:07:58.630Z,88.32
2023-03-03T23:18:04.413Z,88.98
2023-03-03T23:28:10.367Z,89.43
2023-03-03T23:38:17.768Z,90.39
2023-03-03T23:48:23.649Z,90.57
2023-03-03T23:58:29.365Z,91.56
